createdAt,value
2017-12-17T00:00:34.426Z,1008.90
2017-12-17T00:01:34.420Z,1008.90
2017-12-17T00:02:34.416Z,1008.90
2017-12-17T00:03:34.428Z,1008.89
2017-12-17T00:04:34.415Z,1008.91
2017-12-17T00:05:34.398Z,1008.89
2017-12-17T00:06:34.396Z,1008.91
2017-12-17T00:07:34.445Z,1008.91
2017-12-17T00:08:34.381Z,1008.91
2017-12-17T00:09:34.376Z,1008.89
2017-12-17T00:10:34.486Z,1008.94
2017-12-17T00:11:34.367Z,1008.89
2017-12-17T00:12:34.360Z,1008.89
2017-12-17T00:13:34.366Z,1008.92
2017-12-17T00:14:34.349Z,1008.93
2017-12-17T00:15:34.344Z,1008.88
2017-12-17T00:16:34.345Z,1008.88
2017-12-17T00:17:34.342Z,1008.88
2017-12-17T00:18:34.327Z,1008.86
2017-12-17T00:19:34.328Z,1008.93
2017-12-17T00:20:34.320Z,1008.96
2017-12-17T00:21:34.311Z,1008.91
2017-12-17T00:22:34.311Z,1008.96
2017-12-17T00:23:34.314Z,1009.01
2017-12-17T00:24:34.300Z,1009.06
2017-12-17T00:25:34.299Z,1009.03
2017-12-17T00:26:34.287Z,1009.07
2017-12-17T00:27:34.279Z,1009.04
2017-12-17T00:28:34.287Z,1009.00
2017-12-17T00:29:34.274Z,1009.06
2017-12-17T00:30:34.263Z,1009.02
2017-12-17T00:31:34.266Z,1009.06
2017-12-17T00:32:34.255Z,1009.05
2017-12-17T00:33:34.252Z,1009.07
2017-12-17T00:34:34.249Z,1009.07
2017-12-17T00:35:34.238Z,1009.07
2017-12-17T00:36:34.238Z,1009.05
2017-12-17T00:37:34.228Z,1009.10
2017-12-17T00:38:34.234Z,1009.05
2017-12-17T00:39:34.215Z,1009.09
2017-12-17T00:40:34.365Z,1009.12
2017-12-17T00:41:34.222Z,1009.11
2017-12-17T00:42:34.223Z,1009.14
2017-12-17T00:43:34.205Z,1009.13
2017-12-17T00:44:34.191Z,1009.16
2017-12-17T00:45:34.210Z,1009.15
2017-12-17T00:46:34.180Z,1009.16
2017-12-17T00:47:34.232Z,1009.17
2017-12-17T00:48:34.175Z,1009.19
2017-12-17T00:49:34.164Z,1009.20
2017-12-17T00:50:34.165Z,1009.23
2017-12-17T00:51:34.148Z,1009.23
2017-12-17T00:52:34.142Z,1009.23
2017-12-17T00:53:34.144Z,1009.24
2017-12-17T00:54:34.150Z,1009.24
2017-12-17T00:55:34.130Z,1009.22
2017-12-17T00:56:34.124Z,1009.25
2017-12-17T00:57:34.116Z,1009.24
2017-12-17T00:58:34.108Z,1009.24
2017-12-17T00:59:34.104Z,1009.23
2017-12-17T01:00:34.102Z,1009.23
2017-12-17T01:01:34.095Z,1009.23
2017-12-17T01:02:34.089Z,1009.26
2017-12-17T01:03:34.078Z,1009.28
2017-12-17T01:04:34.074Z,1009.19
2017-12-17T01:05:34.073Z,1009.25
2017-12-17T01:06:34.063Z,1009.22
2017-12-17T01:07:34.062Z,1009.28
2017-12-17T01:08:34.063Z,1009.24
2017-12-17T01:09:34.049Z,1009.32
2017-12-17T01:10:34.042Z,1009.28
2017-12-17T01:11:34.037Z,1009.32
2017-12-17T01:12:34.037Z,1009.30
2017-12-17T01:13:34.024Z,1009.32
2017-12-17T01:14:34.024Z,1009.31
2017-12-17T01:15:34.014Z,1009.31
2017-12-17T01:16:34.014Z,1009.34
2017-12-17T01:17:34.001Z,1009.36
2017-12-17T01:18:33.999Z,1009.34
2017-12-17T01:19:33.995Z,1009.38
2017-12-17T01:20:33.990Z,1009.39
2017-12-17T01:21:33.985Z,1009.38
2017-12-17T01:22:33.975Z,1009.42
2017-12-17T01:23:33.972Z,1009.45
2017-12-17T01:24:33.968Z,1009.43
2017-12-17T01:25:33.959Z,1009.42
2017-12-17T01:26:33.951Z,1009.45
2017-12-17T01:27:33.951Z,1009.48
2017-12-17T01:28:33.942Z,1009.50
2017-12-17T01:29:33.935Z,1009.57
2017-12-17T01:30:33.937Z,1009.56
2017-12-17T01:31:33.924Z,1009.50
2017-12-17T01:32:33.920Z,1009.55
2017-12-17T01:33:33.914Z,1009.56
2017-12-17T01:34:33.911Z,1009.55
2017-12-17T01:35:33.905Z,1009.54
2017-12-17T01:36:33.905Z,1009.55
2017-12-17T01:37:33.897Z,1009.64
2017-12-17T01:38:33.888Z,1009.63
2017-12-17T01:39:33.920Z,1009.72
2017-12-17T01:40:33.978Z,1009.71
2017-12-17T01:41:33.888Z,1009.71
2017-12-17T01:42:33.872Z,1009.70
2017-12-17T01:43:33.922Z,1009.71
2017-12-17T01:44:33.877Z,1009.68
2017-12-17T01:45:33.846Z,1009.71
2017-12-17T01:46:33.853Z,1009.79
2017-12-17T01:47:33.840Z,1009.76
2017-12-17T01:48:33.835Z,1009.80
2017-12-17T01:49:33.831Z,1009.86
2017-12-17T01:50:33.820Z,1009.86
2017-12-17T01:51:33.884Z,1009.87
2017-12-17T01:52:33.816Z,1009.88
2017-12-17T01:53:33.801Z,1009.89
2017-12-17T01:54:33.797Z,1009.90
2017-12-17T01:55:33.792Z,1009.91
2017-12-17T01:56:33.786Z,1009.93
2017-12-17T01:57:33.813Z,1009.93
2017-12-17T01:58:33.788Z,1009.95
2017-12-17T01:59:33.872Z,1010.00
2017-12-17T02:00:33.876Z,1009.99
2017-12-17T02:01:34.166Z,1010.00
2017-12-17T02:02:33.805Z,1009.96
2017-12-17T02:03:33.874Z,1009.98
2017-12-17T02:04:33.790Z,1009.96
2017-12-17T02:05:33.736Z,1009.99
2017-12-17T02:06:33.751Z,1009.98
2017-12-17T02:07:33.728Z,1010.00
2017-12-17T02:08:33.725Z,1010.01
2017-12-17T02:09:33.714Z,1010.03
2017-12-17T02:10:33.718Z,1010.01
2017-12-17T02:11:33.715Z,1010.01
2017-12-17T02:12:33.695Z,1010.04
2017-12-17T02:13:33.687Z,1010.01
2017-12-17T02:14:33.686Z,1010.03
2017-12-17T02:15:33.679Z,1010.06
2017-12-17T02:16:33.678Z,1010.03
2017-12-17T02:17:33.670Z,1010.04
2017-12-17T02:18:33.667Z,1010.05
2017-12-17T02:19:33.655Z,1010.02
2017-12-17T02:20:33.653Z,1010.00
2017-12-17T02:21:33.647Z,1010.02
2017-12-17T02:22:33.643Z,1010.00
2017-12-17T02:23:33.642Z,1010.03
2017-12-17T02:24:33.637Z,1010.07
2017-12-17T02:25:33.627Z,1010.08
2017-12-17T02:26:33.623Z,1010.09
2017-12-17T02:27:33.613Z,1010.11
2017-12-17T02:28:33.604Z,1010.11
2017-12-17T02:29:33.605Z,1010.14
2017-12-17T02:30:33.599Z,1010.16
2017-12-17T02:31:33.587Z,1010.16
2017-12-17T02:32:33.585Z,1010.19
2017-12-17T02:33:33.578Z,1010.20
2017-12-17T02:34:33.577Z,1010.19
2017-12-17T02:35:33.566Z,1010.22
2017-12-17T02:36:33.566Z,1010.21
2017-12-17T02:37:33.557Z,1010.23
2017-12-17T02:38:33.553Z,1010.25
2017-12-17T02:39:33.542Z,1010.29
2017-12-17T02:40:33.538Z,1010.26
2017-12-17T02:41:33.536Z,1010.28
2017-12-17T02:42:33.526Z,1010.27
2017-12-17T02:43:33.526Z,1010.27
2017-12-17T02:44:33.568Z,1010.32
2017-12-17T02:45:33.509Z,1010.34
2017-12-17T02:46:33.501Z,1010.33
2017-12-17T02:47:33.500Z,1010.35
2017-12-17T02:48:33.490Z,1010.34
2017-12-17T02:49:33.489Z,1010.39
2017-12-17T02:50:33.479Z,1010.38
2017-12-17T02:51:33.485Z,1010.41
2017-12-17T02:52:33.468Z,1010.39
2017-12-17T02:53:33.462Z,1010.41
2017-12-17T02:54:33.460Z,1010.42
2017-12-17T02:55:33.464Z,1010.42
2017-12-17T02:56:33.451Z,1010.39
2017-12-17T02:57:33.452Z,1010.40
2017-12-17T02:58:33.437Z,1010.47
2017-12-17T02:59:33.429Z,1010.42
2017-12-17T03:00:33.426Z,1010.41
2017-12-17T03:01:33.420Z,1010.46
2017-12-17T03:02:33.410Z,1010.48
2017-12-17T03:03:33.407Z,1010.46
2017-12-17T03:04:33.405Z,1010.49
2017-12-17T03:05:33.393Z,1010.49
2017-12-17T03:06:33.399Z,1010.54
2017-12-17T03:07:33.381Z,1010.53
2017-12-17T03:08:33.378Z,1010.53
2017-12-17T03:09:33.378Z,1010.55
2017-12-17T03:10:33.364Z,1010.57
2017-12-17T03:11:33.365Z,1010.58
2017-12-17T03:12:33.360Z,1010.55
2017-12-17T03:13:33.352Z,1010.58
2017-12-17T03:14:33.348Z,1010.61
2017-12-17T03:15:33.336Z,1010.61
2017-12-17T03:16:33.339Z,1010.68
2017-12-17T03:17:33.324Z,1010.62
2017-12-17T03:18:33.324Z,1010.63
2017-12-17T03:19:33.316Z,1010.66
2017-12-17T03:20:33.308Z,1010.66
2017-12-17T03:21:33.311Z,1010.68
2017-12-17T03:22:33.299Z,1010.68
2017-12-17T03:23:33.288Z,1010.73
2017-12-17T03:24:33.284Z,1010.72
2017-12-17T03:25:33.279Z,1010.75
2017-12-17T03:26:33.280Z,1010.73
2017-12-17T03:27:33.271Z,1010.74
2017-12-17T03:28:33.260Z,1010.72
2017-12-17T03:29:33.260Z,1010.70
2017-12-17T03:30:33.258Z,1010.77
2017-12-17T03:31:33.244Z,1010.74
2017-12-17T03:32:33.235Z,1010.72
2017-12-17T03:33:33.235Z,1010.73
2017-12-17T03:34:33.225Z,1010.74
2017-12-17T03:35:33.221Z,1010.74
2017-12-17T03:36:33.219Z,1010.78
2017-12-17T03:37:33.208Z,1010.73
2017-12-17T03:38:33.202Z,1010.78
2017-12-17T03:39:33.195Z,1010.76
2017-12-17T03:40:33.197Z,1010.79
2017-12-17T03:41:33.196Z,1010.75
2017-12-17T03:42:33.181Z,1010.78
2017-12-17T03:43:33.177Z,1010.75
2017-12-17T03:44:33.169Z,1010.70
2017-12-17T03:45:33.164Z,1010.69
2017-12-17T03:46:33.155Z,1010.76
2017-12-17T03:47:33.145Z,1010.84
2017-12-17T03:48:33.146Z,1010.85
2017-12-17T03:49:33.140Z,1010.83
2017-12-17T03:50:33.139Z,1010.88
2017-12-17T03:51:33.136Z,1010.92
2017-12-17T03:52:33.121Z,1010.90
2017-12-17T03:53:33.117Z,1011.00
2017-12-17T03:54:33.111Z,1010.97
2017-12-17T03:55:33.148Z,1010.97
2017-12-17T03:56:33.103Z,1010.99
2017-12-17T03:57:33.093Z,1011.03
2017-12-17T03:58:33.086Z,1011.03
2017-12-17T03:59:33.082Z,1011.06
2017-12-17T04:00:33.074Z,1011.06
2017-12-17T04:01:33.071Z,1011.12
2017-12-17T04:02:33.098Z,1011.12
2017-12-17T04:03:33.060Z,1011.16
2017-12-17T04:04:33.051Z,1011.18
2017-12-17T04:05:33.047Z,1011.20
2017-12-17T04:06:33.046Z,1011.23
2017-12-17T04:07:33.035Z,1011.21
2017-12-17T04:08:33.026Z,1011.26
2017-12-17T04:09:33.020Z,1011.25
2017-12-17T04:10:33.019Z,1011.32
2017-12-17T04:11:33.012Z,1011.34
2017-12-17T04:12:33.004Z,1011.38
2017-12-17T04:13:33.000Z,1011.38
2017-12-17T04:14:32.991Z,1011.38
2017-12-17T04:15:32.987Z,1011.41
2017-12-17T04:16:32.977Z,1011.43
2017-12-17T04:17:32.975Z,1011.47
2017-12-17T04:18:32.969Z,1011.42
2017-12-17T04:19:32.963Z,1011.47
2017-12-17T04:20:32.960Z,1011.47
2017-12-17T04:21:32.950Z,1011.51
2017-12-17T04:22:32.941Z,1011.48
2017-12-17T04:23:32.938Z,1011.56
2017-12-17T04:24:32.935Z,1011.54
2017-12-17T04:25:32.920Z,1011.61
2017-12-17T04:26:32.945Z,1011.55
2017-12-17T04:27:32.915Z,1011.57
2017-12-17T04:28:32.911Z,1011.62
2017-12-17T04:29:32.907Z,1011.56
2017-12-17T04:30:32.915Z,1011.63
2017-12-17T04:31:32.893Z,1011.59
2017-12-17T04:32:32.896Z,1011.61
2017-12-17T04:33:32.878Z,1011.59
2017-12-17T04:34:32.874Z,1011.59
2017-12-17T04:35:32.862Z,1011.57
2017-12-17T04:36:32.863Z,1011.62
2017-12-17T04:37:32.852Z,1011.62
2017-12-17T04:38:32.844Z,1011.65
2017-12-17T04:39:32.853Z,1011.66
2017-12-17T04:40:32.830Z,1011.71
2017-12-17T04:41:32.826Z,1011.71
2017-12-17T04:42:32.827Z,1011.75
2017-12-17T04:43:32.813Z,1011.71
2017-12-17T04:44:32.809Z,1011.67
2017-12-17T04:45:32.802Z,1011.65
2017-12-17T04:46:32.800Z,1011.67
2017-12-17T04:47:32.806Z,1011.68
2017-12-17T04:48:32.780Z,1011.68
2017-12-17T04:49:32.785Z,1011.71
2017-12-17T04:50:32.773Z,1011.68
2017-12-17T04:51:32.763Z,1011.73
2017-12-17T04:52:32.757Z,1011.78
2017-12-17T04:53:32.756Z,1011.80
2017-12-17T04:54:32.745Z,1011.84
2017-12-17T04:55:32.736Z,1011.83
2017-12-17T04:56:32.730Z,1011.93
2017-12-17T04:57:32.728Z,1011.89
2017-12-17T04:58:32.720Z,1011.95
2017-12-17T04:59:32.711Z,1012.00
2017-12-17T05:00:32.713Z,1012.01
2017-12-17T05:01:32.703Z,1012.00
2017-12-17T05:02:32.699Z,1011.99
2017-12-17T05:03:32.688Z,1012.03
2017-12-17T05:04:32.681Z,1011.98
2017-12-17T05:05:32.680Z,1012.02
2017-12-17T05:06:32.676Z,1012.03
2017-12-17T05:07:32.667Z,1012.00
2017-12-17T05:08:32.657Z,1012.06
2017-12-17T05:09:32.658Z,1012.10
2017-12-17T05:10:32.643Z,1012.12
2017-12-17T05:11:32.642Z,1012.15
2017-12-17T05:12:32.632Z,1012.12
2017-12-17T05:13:32.630Z,1012.18
2017-12-17T05:14:32.618Z,1012.17
2017-12-17T05:15:32.613Z,1012.18
2017-12-17T05:16:32.609Z,1012.19
2017-12-17T05:17:32.601Z,1012.21
2017-12-17T05:18:32.594Z,1012.23
2017-12-17T05:19:32.597Z,1012.28
2017-12-17T05:20:32.584Z,1012.30
2017-12-17T05:21:32.576Z,1012.27
2017-12-17T05:22:32.565Z,1012.32
2017-12-17T05:23:32.562Z,1012.33
2017-12-17T05:24:32.560Z,1012.35
2017-12-17T05:25:32.552Z,1012.34
2017-12-17T05:26:32.542Z,1012.37
2017-12-17T05:27:32.538Z,1012.38
2017-12-17T05:28:32.528Z,1012.40
2017-12-17T05:29:32.523Z,1012.39
2017-12-17T05:30:32.520Z,1012.40
2017-12-17T05:31:32.509Z,1012.44
2017-12-17T05:32:32.504Z,1012.46
2017-12-17T05:33:32.503Z,1012.49
2017-12-17T05:34:32.492Z,1012.49
2017-12-17T05:35:32.484Z,1012.52
2017-12-17T05:36:32.480Z,1012.53
2017-12-17T05:37:32.478Z,1012.49
2017-12-17T05:38:32.472Z,1012.61
2017-12-17T05:39:32.465Z,1012.59
2017-12-17T05:40:32.453Z,1012.59
2017-12-17T05:41:32.447Z,1012.60
2017-12-17T05:42:32.440Z,1012.62
2017-12-17T05:43:32.435Z,1012.65
2017-12-17T05:44:32.431Z,1012.65
2017-12-17T05:45:32.424Z,1012.68
2017-12-17T05:46:32.416Z,1012.72
2017-12-17T05:47:32.410Z,1012.73
2017-12-17T05:48:32.455Z,1012.77
2017-12-17T05:49:32.399Z,1012.78
2017-12-17T05:50:32.398Z,1012.77
2017-12-17T05:51:32.392Z,1012.77
2017-12-17T05:52:32.392Z,1012.81
2017-12-17T05:53:32.377Z,1012.80
2017-12-17T05:54:32.388Z,1012.84
2017-12-17T05:55:32.365Z,1012.88
2017-12-17T05:56:32.374Z,1012.85
2017-12-17T05:57:32.351Z,1012.84
2017-12-17T05:58:32.345Z,1012.89
2017-12-17T05:59:32.340Z,1012.84
2017-12-17T06:00:32.341Z,1012.88
2017-12-17T06:01:32.320Z,1012.92
2017-12-17T06:02:32.323Z,1012.81
2017-12-17T06:03:32.310Z,1012.92
2017-12-17T06:04:32.307Z,1012.93
2017-12-17T06:05:32.301Z,1012.99
2017-12-17T06:06:32.297Z,1012.93
2017-12-17T06:07:32.324Z,1013.00
2017-12-17T06:08:32.281Z,1013.02
2017-12-17T06:09:32.271Z,1013.05
2017-12-17T06:10:32.273Z,1013.00
2017-12-17T06:11:32.263Z,1013.07
2017-12-17T06:12:32.257Z,1013.10
2017-12-17T06:13:32.248Z,1013.05
2017-12-17T06:14:32.242Z,1013.12
2017-12-17T06:15:32.240Z,1013.12
2017-12-17T06:16:32.231Z,1013.15
2017-12-17T06:17:32.225Z,1013.13
2017-12-17T06:18:32.216Z,1013.18
2017-12-17T06:19:32.213Z,1013.18
2017-12-17T06:20:32.213Z,1013.17
2017-12-17T06:21:32.201Z,1013.18
2017-12-17T06:22:32.192Z,1013.20
2017-12-17T06:23:32.192Z,1013.22
2017-12-17T06:24:32.189Z,1013.20
2017-12-17T06:25:32.173Z,1013.25
2017-12-17T06:26:32.167Z,1013.25
2017-12-17T06:27:32.166Z,1013.25
2017-12-17T06:28:32.161Z,1013.27
2017-12-17T06:29:32.194Z,1013.28
2017-12-17T06:30:32.145Z,1013.28
2017-12-17T06:31:32.142Z,1013.30
2017-12-17T06:32:32.144Z,1013.29
2017-12-17T06:33:32.124Z,1013.33
2017-12-17T06:34:32.118Z,1013.32
2017-12-17T06:35:32.110Z,1013.35
2017-12-17T06:36:32.116Z,1013.37
2017-12-17T06:37:32.105Z,1013.38
2017-12-17T06:38:32.095Z,1013.38
2017-12-17T06:39:32.088Z,1013.39
2017-12-17T06:40:32.086Z,1013.43
2017-12-17T06:41:32.074Z,1013.41
2017-12-17T06:42:32.068Z,1013.43
2017-12-17T06:43:32.063Z,1013.41
2017-12-17T06:44:32.069Z,1013.44
2017-12-17T06:45:32.051Z,1013.49
2017-12-17T06:46:32.047Z,1013.47
2017-12-17T06:47:32.037Z,1013.47
2017-12-17T06:48:32.034Z,1013.45
2017-12-17T06:49:32.031Z,1013.47
2017-12-17T06:50:32.082Z,1013.55
2017-12-17T06:51:32.014Z,1013.55
2017-12-17T06:52:32.005Z,1013.56
2017-12-17T06:53:32.004Z,1013.57
2017-12-17T06:54:31.994Z,1013.62
2017-12-17T06:55:31.989Z,1013.59
2017-12-17T06:56:31.983Z,1013.61
2017-12-17T06:57:31.975Z,1013.63
2017-12-17T06:58:31.972Z,1013.66
2017-12-17T06:59:31.967Z,1013.69
2017-12-17T07:00:31.960Z,1013.69
2017-12-17T07:01:31.951Z,1013.73
2017-12-17T07:02:31.948Z,1013.74
2017-12-17T07:03:31.942Z,1013.72
2017-12-17T07:04:31.934Z,1013.75
2017-12-17T07:05:31.932Z,1013.79
2017-12-17T07:06:31.942Z,1013.81
2017-12-17T07:07:31.922Z,1013.80
2017-12-17T07:08:31.929Z,1013.83
2017-12-17T07:09:31.912Z,1013.87
2017-12-17T07:10:32.195Z,1013.88
2017-12-17T07:11:31.896Z,1013.91
2017-12-17T07:12:31.886Z,1013.90
2017-12-17T07:13:31.884Z,1013.89
2017-12-17T07:14:31.886Z,1013.93
2017-12-17T07:15:31.873Z,1013.93
2017-12-17T07:16:31.867Z,1013.97
2017-12-17T07:17:31.862Z,1014.00
2017-12-17T07:18:31.882Z,1014.04
2017-12-17T07:19:31.849Z,1013.99
2017-12-17T07:20:31.846Z,1014.02
2017-12-17T07:21:31.833Z,1014.06
2017-12-17T07:22:31.830Z,1014.06
2017-12-17T07:23:31.823Z,1014.06
2017-12-17T07:24:31.817Z,1014.07
2017-12-17T07:25:31.811Z,1014.09
2017-12-17T07:26:31.800Z,1014.07
2017-12-17T07:27:31.804Z,1014.12
2017-12-17T07:28:31.793Z,1014.07
2017-12-17T07:29:31.790Z,1014.15
2017-12-17T07:30:31.942Z,1014.15
2017-12-17T07:31:31.775Z,1014.17
2017-12-17T07:32:31.772Z,1014.17
2017-12-17T07:33:31.767Z,1014.21
2017-12-17T07:34:31.755Z,1014.18
2017-12-17T07:35:31.754Z,1014.15
2017-12-17T07:36:31.763Z,1014.20
2017-12-17T07:37:31.739Z,1014.19
2017-12-17T07:38:31.732Z,1014.22
2017-12-17T07:39:31.733Z,1014.21
2017-12-17T07:40:31.719Z,1014.22
2017-12-17T07:41:31.717Z,1014.24
2017-12-17T07:42:31.892Z,1014.27
2017-12-17T07:43:31.698Z,1014.28
2017-12-17T07:44:31.694Z,1014.27
2017-12-17T07:45:31.689Z,1014.30
2017-12-17T07:46:31.700Z,1014.30
2017-12-17T07:47:31.685Z,1014.30
2017-12-17T07:48:31.669Z,1014.36
2017-12-17T07:49:31.667Z,1014.35
2017-12-17T07:50:31.663Z,1014.37
2017-12-17T07:51:31.657Z,1014.35
2017-12-17T07:52:31.646Z,1014.41
2017-12-17T07:53:31.641Z,1014.45
2017-12-17T07:54:31.634Z,1014.48
2017-12-17T07:55:31.629Z,1014.43
2017-12-17T07:56:31.651Z,1014.45
2017-12-17T07:57:31.620Z,1014.48
2017-12-17T07:58:31.611Z,1014.48
2017-12-17T07:59:31.607Z,1014.52
2017-12-17T08:00:31.596Z,1014.48
2017-12-17T08:01:31.595Z,1014.51
2017-12-17T08:02:31.589Z,1014.50
2017-12-17T08:03:31.584Z,1014.52
2017-12-17T08:04:31.569Z,1014.55
2017-12-17T08:05:31.570Z,1014.55
2017-12-17T08:06:31.564Z,1014.61
2017-12-17T08:07:31.554Z,1014.58
2017-12-17T08:08:31.554Z,1014.62
2017-12-17T08:09:31.547Z,1014.68
2017-12-17T08:10:31.535Z,1014.66
2017-12-17T08:11:31.541Z,1014.70
2017-12-17T08:12:31.524Z,1014.70
2017-12-17T08:13:31.522Z,1014.74
2017-12-17T08:14:31.514Z,1014.72
2017-12-17T08:15:31.504Z,1014.72
2017-12-17T08:16:31.501Z,1014.73
2017-12-17T08:17:31.494Z,1014.74
2017-12-17T08:18:31.495Z,1014.83
2017-12-17T08:19:31.488Z,1014.84
2017-12-17T08:20:31.473Z,1014.83
2017-12-17T08:21:31.472Z,1014.88
2017-12-17T08:22:31.465Z,1014.91
2017-12-17T08:23:31.455Z,1014.92
2017-12-17T08:24:31.450Z,1014.99
2017-12-17T08:25:31.447Z,1014.99
2017-12-17T08:26:31.452Z,1015.03
2017-12-17T08:27:31.433Z,1015.00
2017-12-17T08:28:31.422Z,1015.03
2017-12-17T08:29:31.420Z,1015.06
2017-12-17T08:30:31.416Z,1015.10
2017-12-17T08:31:31.409Z,1015.11
2017-12-17T08:32:31.403Z,1015.08
2017-12-17T08:33:31.395Z,1015.15
2017-12-17T08:34:31.398Z,1015.11
2017-12-17T08:35:31.384Z,1015.13
2017-12-17T08:36:31.382Z,1015.12
2017-12-17T08:37:31.385Z,1015.11
2017-12-17T08:38:31.371Z,1015.13
2017-12-17T08:39:31.356Z,1015.16
2017-12-17T08:40:31.354Z,1015.20
2017-12-17T08:41:31.354Z,1015.20
2017-12-17T08:42:31.341Z,1015.22
2017-12-17T08:43:31.337Z,1015.23
2017-12-17T08:44:31.331Z,1015.26
2017-12-17T08:45:31.323Z,1015.27
2017-12-17T08:46:31.324Z,1015.28
2017-12-17T08:47:31.314Z,1015.30
2017-12-17T08:48:31.306Z,1015.35
2017-12-17T08:49:31.312Z,1015.35
2017-12-17T08:50:31.303Z,1015.36
2017-12-17T08:51:31.289Z,1015.41
2017-12-17T08:52:31.283Z,1015.43
2017-12-17T08:53:31.274Z,1015.47
2017-12-17T08:54:31.270Z,1015.45
2017-12-17T08:55:31.266Z,1015.50
2017-12-17T08:56:31.263Z,1015.52
2017-12-17T08:57:31.253Z,1015.57
2017-12-17T08:58:31.259Z,1015.52
2017-12-17T08:59:31.242Z,1015.61
2017-12-17T09:00:31.232Z,1015.60
2017-12-17T09:01:31.231Z,1015.63
2017-12-17T09:02:31.225Z,1015.60
2017-12-17T09:03:31.215Z,1015.57
2017-12-17T09:04:31.211Z,1015.60
2017-12-17T09:05:31.209Z,1015.63
2017-12-17T09:06:31.201Z,1015.65
2017-12-17T09:07:31.191Z,1015.63
2017-12-17T09:08:31.195Z,1015.68
2017-12-17T09:09:31.178Z,1015.69
2017-12-17T09:10:31.178Z,1015.75
2017-12-17T09:11:31.170Z,1015.72
2017-12-17T09:12:31.161Z,1015.76
2017-12-17T09:13:31.161Z,1015.79
2017-12-17T09:14:31.181Z,1015.81
2017-12-17T09:15:31.154Z,1015.83
2017-12-17T09:16:31.142Z,1015.88
2017-12-17T09:17:31.140Z,1015.87
2017-12-17T09:18:31.130Z,1015.93
2017-12-17T09:19:31.119Z,1015.97
2017-12-17T09:20:31.114Z,1016.01
2017-12-17T09:21:31.110Z,1016.05
2017-12-17T09:22:31.104Z,1016.05
2017-12-17T09:23:31.100Z,1016.09
2017-12-17T09:24:31.092Z,1016.07
2017-12-17T09:25:31.086Z,1016.07
2017-12-17T09:26:31.082Z,1016.13
2017-12-17T09:27:31.078Z,1016.16
2017-12-17T09:28:31.071Z,1016.14
2017-12-17T09:29:31.072Z,1016.14
2017-12-17T09:30:31.060Z,1016.15
2017-12-17T09:31:31.053Z,1016.20
2017-12-17T09:32:31.048Z,1016.17
2017-12-17T09:33:31.040Z,1016.17
2017-12-17T09:34:31.039Z,1016.23
2017-12-17T09:35:31.030Z,1016.24
2017-12-17T09:36:31.026Z,1016.26
2017-12-17T09:37:31.023Z,1016.28
2017-12-17T09:38:31.017Z,1016.25
2017-12-17T09:39:31.005Z,1016.28
2017-12-17T09:40:31.001Z,1016.29
2017-12-17T09:41:31.002Z,1016.32
2017-12-17T09:42:30.988Z,1016.37
2017-12-17T09:43:30.988Z,1016.35
2017-12-17T09:44:30.978Z,1016.37
2017-12-17T09:45:30.974Z,1016.40
2017-12-17T09:46:30.973Z,1016.39
2017-12-17T09:47:30.977Z,1016.42
2017-12-17T09:48:30.998Z,1016.42
2017-12-17T09:49:30.952Z,1016.39
2017-12-17T09:50:30.953Z,1016.43
2017-12-17T09:51:30.940Z,1016.43
2017-12-17T09:52:30.931Z,1016.44
2017-12-17T09:53:30.934Z,1016.42
2017-12-17T09:54:30.950Z,1016.39
2017-12-17T09:55:30.917Z,1016.38
2017-12-17T09:56:30.908Z,1016.41
2017-12-17T09:57:30.913Z,1016.44
2017-12-17T09:58:30.899Z,1016.47
2017-12-17T09:59:30.893Z,1016.46
2017-12-17T10:00:30.885Z,1016.43
2017-12-17T10:01:30.882Z,1016.45
2017-12-17T10:02:30.877Z,1016.47
2017-12-17T10:03:30.869Z,1016.46
2017-12-17T10:04:30.861Z,1016.47
2017-12-17T10:05:30.861Z,1016.46
2017-12-17T10:06:30.864Z,1016.43
2017-12-17T10:07:30.846Z,1016.47
2017-12-17T10:08:30.848Z,1016.45
2017-12-17T10:09:30.838Z,1016.52
2017-12-17T10:10:30.831Z,1016.53
2017-12-17T10:11:30.826Z,1016.53
2017-12-17T10:12:30.829Z,1016.56
2017-12-17T10:13:30.819Z,1016.60
2017-12-17T10:14:30.809Z,1016.56
2017-12-17T10:15:30.807Z,1016.58
2017-12-17T10:16:30.811Z,1016.59
2017-12-17T10:17:30.794Z,1016.59
2017-12-17T10:18:30.792Z,1016.61
2017-12-17T10:19:30.785Z,1016.54
2017-12-17T10:20:30.781Z,1016.56
2017-12-17T10:21:30.774Z,1016.54
2017-12-17T10:22:30.768Z,1016.57
2017-12-17T10:23:30.760Z,1016.58
2017-12-17T10:24:30.758Z,1016.58
2017-12-17T10:25:30.749Z,1016.56
2017-12-17T10:26:30.748Z,1016.58
2017-12-17T10:27:30.745Z,1016.59
2017-12-17T10:28:30.742Z,1016.54
2017-12-17T10:29:30.754Z,1016.51
2017-12-17T10:30:30.729Z,1016.47
2017-12-17T10:31:30.716Z,1016.45
2017-12-17T10:32:30.711Z,1016.46
2017-12-17T10:33:30.709Z,1016.44
2017-12-17T10:34:30.714Z,1016.42
2017-12-17T10:35:30.700Z,1016.45
2017-12-17T10:36:30.692Z,1016.43
2017-12-17T10:37:30.686Z,1016.41
2017-12-17T10:38:30.681Z,1016.42
2017-12-17T10:39:30.675Z,1016.40
2017-12-17T10:40:30.669Z,1016.45
2017-12-17T10:41:30.661Z,1016.43
2017-12-17T10:42:30.666Z,1016.45
2017-12-17T10:43:30.672Z,1016.44
2017-12-17T10:44:30.647Z,1016.48
2017-12-17T10:45:30.645Z,1016.46
2017-12-17T10:46:30.635Z,1016.49
2017-12-17T10:47:30.632Z,1016.49
2017-12-17T10:48:30.626Z,1016.53
2017-12-17T10:49:30.623Z,1016.53
2017-12-17T10:50:30.618Z,1016.60
2017-12-17T10:51:30.616Z,1016.62
2017-12-17T10:52:30.602Z,1016.62
2017-12-17T10:53:30.600Z,1016.63
2017-12-17T10:54:30.597Z,1016.64
2017-12-17T10:55:30.587Z,1016.60
2017-12-17T10:56:30.580Z,1016.60
2017-12-17T10:57:30.581Z,1016.61
2017-12-17T10:58:30.583Z,1016.66
2017-12-17T10:59:30.575Z,1016.63
2017-12-17T11:02:02.300Z,1016.75
2017-12-17T11:03:02.244Z,1016.70
2017-12-17T11:04:55.217Z,1016.76
2017-12-17T11:05:55.206Z,1016.69
2017-12-17T11:06:55.196Z,1016.69
2017-12-17T11:07:55.193Z,1016.72
2017-12-17T11:08:55.189Z,1016.68
2017-12-17T11:09:55.187Z,1016.70
2017-12-17T11:10:55.174Z,1016.75
2017-12-17T11:11:55.168Z,1016.71
2017-12-17T11:12:55.163Z,1016.72
2017-12-17T11:13:55.159Z,1016.70
2017-12-17T11:14:55.158Z,1016.80
2017-12-17T11:15:55.152Z,1016.79
2017-12-17T11:16:55.141Z,1016.76
2017-12-17T11:17:55.138Z,1016.76
2017-12-17T11:18:55.135Z,1016.75
2017-12-17T11:19:55.134Z,1016.76
2017-12-17T11:20:55.129Z,1016.72
2017-12-17T11:21:55.122Z,1016.76
2017-12-17T11:22:55.127Z,1016.75
2017-12-17T11:23:55.112Z,1016.73
2017-12-17T11:24:55.108Z,1016.76
2017-12-17T11:25:55.098Z,1016.74
2017-12-17T11:26:55.104Z,1016.76
2017-12-17T11:27:55.090Z,1016.74
2017-12-17T11:28:55.080Z,1016.78
2017-12-17T11:29:55.082Z,1016.76
2017-12-17T11:30:55.080Z,1016.74
2017-12-17T11:31:55.100Z,1016.73
2017-12-17T11:32:55.061Z,1016.69
2017-12-17T11:33:55.057Z,1016.72
2017-12-17T11:34:55.060Z,1016.71
2017-12-17T11:35:55.055Z,1016.73
2017-12-17T11:36:55.046Z,1016.70
2017-12-17T11:37:55.040Z,1016.71
2017-12-17T11:38:55.036Z,1016.66
2017-12-17T11:39:55.038Z,1016.71
2017-12-17T11:40:55.029Z,1016.70
2017-12-17T11:41:55.020Z,1016.69
2017-12-17T11:42:55.022Z,1016.72
2017-12-17T11:43:55.017Z,1016.67
2017-12-17T11:44:55.005Z,1016.70
2017-12-17T11:45:55.001Z,1016.67
2017-12-17T11:46:54.998Z,1016.68
2017-12-17T11:47:54.991Z,1016.66
2017-12-17T11:48:54.993Z,1016.67
2017-12-17T11:49:54.982Z,1016.69
2017-12-17T11:50:54.982Z,1016.70
2017-12-17T11:51:54.974Z,1016.67
2017-12-17T11:52:54.973Z,1016.71
2017-12-17T11:53:54.963Z,1016.74
2017-12-17T11:54:54.967Z,1016.71
2017-12-17T11:55:54.957Z,1016.70
2017-12-17T11:56:54.976Z,1016.72
2017-12-17T11:57:54.949Z,1016.72
2017-12-17T11:58:54.945Z,1016.70
2017-12-17T11:59:54.937Z,1016.74
2017-12-17T12:00:54.964Z,1016.78
2017-12-17T12:01:54.933Z,1016.72
2017-12-17T12:02:54.921Z,1016.74
2017-12-17T12:03:54.915Z,1016.78
2017-12-17T12:04:54.908Z,1016.80
2017-12-17T12:05:54.912Z,1016.82
2017-12-17T12:06:54.900Z,1016.78
2017-12-17T12:07:54.893Z,1016.84